Wauneta, NE

6:22 PM MDT on July 23, 2014 (GMT -0600)
Searle (KOGA) Elev 3278 ft | 41.12 °N, 101.77 °W | Change Station

Current weather conditions updated 7 minutes ago

Clear
Clear
82 °F
Feels Like 84 °F
N
15
Wind Variable Wind from ESE
Gusts 21 mph

Tomorrow is forecast to be Much Warmer than today.

Today
High -- | Low -- °F
--% Chance of Precip.
Yesterday
High -- | Low -- °F
Precip. -- in
5:34 AM 8:08 PM
Waning Crescent, 8% visible
Pressure 30.14 in
Visibility 10.0 miles
Clouds Clear
Heat Index 84 °F
Dew Point 66 °F
Humidity 56%
Rainfall 0.26 in
Snow Depth Not available.
UV 2 out of 12
Pollen 6.60 out of 12
Air Quality Not available.
Flu Activity Not available.
METAR KOGA 240015Z AUTO 11013G18KT 10SM CLR 28/19 A3014 RMK AO2 T02800186

More Conditions Fewer Conditions

Pressure 30.14 in
Visibility 10.0 miles
Clouds Clear
Heat Index 84 °F
Dew Point 66 °F
Humidity 56%
Rainfall 0.26 in
Snow Depth Not available.
UV 2 out of 12
Pollen 6.60 out of 12
Air Quality Not available.
Flu Activity Not available.
METAR KOGA 240015Z AUTO 11013G18KT 10SM CLR 28/19 A3014 RMK AO2 T02800186

More Conditions Fewer Conditions

10-Day Weather Forecast

Almanac

Astronomy

Jul. 23, 2014 Rise Set
Actual Time 5:34 AM MDT 8:08 PM MDT
Civil Twilight 5:03 AM MDT 8:40 PM MDT
Nautical Twilight 4:24 AM MDT 9:19 PM MDT
Astronomical Twilight 3:40 AM MDT 10:02 PM MDT
Moon 2:55 AM MDT (7/23) 5:39 PM MDT (7/23)
Length of Visible Light 15h 36m
Length of Day
14h 34m
Tomorrow will be 1m 43s shorter.
Waning Crescent, 8% of the Moon is Illuminated
Today
Waning Crescent
Jul 26
New
Aug 3
First Quarter
Aug 10
Full
Aug 17
Last Quarter

Today's Extremes

State Highs State Lows

Community

WunderPhotos

Upload Photos

1,736,827 photos uploaded!

Nearby

Snow Depth

Station Depth Elevation
No new snow has been reported.

Earthquake Activity

City Distance Mag. Time & Date
No recent earthquake activity has been reported nearby.
Minimum magnitude displayed is 2.5.

Coastal Water Temperatures

Place Temperature
No Stations Reporting

Nearby Weather Stations

Station Location Temp. Heat Index Dew Point Humidity Wind Precip. Elev Updated Type
Palisade, Palisade, NE 82.8 °F 85 °F 66 °F 56% SE  at  5.8 mph 0.00 in / hr 2768 ft 7:22 PM CDT Rapid Fire
HAYES CENTER, HAYES CENTER, NE 82.0 °F 85 °F 68 °F 62% ESE  at  18.0 mph 0.00 in / hr 3035 ft 7:18 PM CDT Normal
MesoWest JOHNSON FARM , Champion, NE 88 °F 92 °F 68 °F 52% SSE  at  6 mph 0.00 in / hr 3340 ft 5:00 PM MDT MADIS
5 North, 1.5 West, Trenton, NE 83.0 °F 85 °F 66 °F 57% ESE  at  17.0 mph 0.34 in / hr 2969 ft 7:18 PM CDT Normal

Show More Stations Show Fewer Stations